Terminal Aerodrome Forecast
Issued by NWS

Home | Current Version | Previous Version | Text Only | Print | Product List | Glossary On
Versions: 1 2 3 4 5 6 7 8 9 10 11 12 13 14 15 16 17 18 19
000
FTUS44 KCRP 212345
TAFALI
TAF
KALI 212345Z 2200/2224 01013KT P6SM -SHRA VCTS BKN008CB OVC015
      TEMPO 2200/2202 5SM -TSRA OVC010CB
     FM220400 01011KT P6SM VCSH OVC006
      TEMPO 2204/2208 5SM -SHRA OVC004
     FM221500 35008KT P6SM OVC008=

USA.gov is the U.S. government's official web portal to all federal, state and local government web resources and services.